createdAt,value
2023-04-03T00:03:23.279Z,101416.41
2023-04-03T00:08:24.705Z,101418.72
2023-04-03T00:13:26.151Z,101424.63
2023-04-03T00:18:27.542Z,101424.84
2023-04-03T00:23:28.995Z,101426.16
2023-04-03T00:28:32.518Z,101432.44
2023-04-03T00:33:33.884Z,101426.06
2023-04-03T00:38:35.608Z,101431.00
2023-04-03T00:43:37.598Z,101430.59
2023-04-03T00:48:47.965Z,101434.75
2023-04-03T00:53:57.681Z,101429.16
2023-04-03T00:59:07.146Z,101438.22
2023-04-03T01:04:37.857Z,101442.66
2023-04-03T01:09:40.481Z,101443.75
2023-04-03T01:14:42.331Z,101444.16
2023-04-03T01:19:53.989Z,101446.59
2023-04-03T01:24:55.430Z,101443.50
2023-04-03T01:29:58.764Z,101441.94
2023-04-03T01:35:00.190Z,101445.88
2023-04-03T01:40:01.588Z,101436.41
2023-04-03T01:45:03.599Z,101443.72
2023-04-03T01:50:05.278Z,101439.47
2023-04-03T01:55:07.224Z,101448.72
2023-04-03T02:00:09.869Z,101445.09
2023-04-03T02:05:11.454Z,101453.84
2023-04-03T02:10:13.281Z,101444.63
2023-04-03T02:15:14.743Z,101451.22
2023-04-03T02:20:16.190Z,101445.78
2023-04-03T02:25:18.672Z,101450.22
2023-04-03T02:30:20.348Z,101444.25
2023-04-03T02:35:21.729Z,101449.63
2023-04-03T02:40:23.110Z,101452.41
2023-04-03T02:45:24.437Z,101447.69
2023-04-03T02:50:25.812Z,101449.56
2023-04-03T02:55:27.228Z,101460.03
2023-04-03T03:00:28.736Z,101453.63
2023-04-03T03:05:31.238Z,101461.28
2023-04-03T03:10:32.597Z,101455.81
2023-04-03T03:15:33.966Z,101462.50
2023-04-03T03:20:35.617Z,101460.09
2023-04-03T03:25:43.061Z,101461.06
2023-04-03T03:30:44.406Z,101460.72
2023-04-03T03:35:46.365Z,101466.78
2023-04-03T03:40:49.614Z,101466.06
2023-04-03T03:45:54.816Z,101470.22
2023-04-03T03:50:56.175Z,101472.41
2023-04-03T03:55:57.653Z,101474.44
2023-04-03T04:01:03.320Z,101475.56
2023-04-03T04:06:05.048Z,101490.34
2023-04-03T04:11:06.859Z,101483.28
2023-04-03T04:16:09.126Z,101484.63
2023-04-03T04:21:10.742Z,101487.75
2023-04-03T04:26:12.093Z,101488.38
2023-04-03T04:31:13.486Z,101490.81
2023-04-03T04:36:15.816Z,101496.06
2023-04-03T04:41:18.642Z,101498.25
2023-04-03T04:46:20.295Z,101498.69
2023-04-03T04:51:21.840Z,101505.44
2023-04-03T04:56:23.214Z,101508.91
2023-04-03T05:01:24.768Z,101507.72
2023-04-03T05:06:26.231Z,101513.16
2023-04-03T05:11:27.859Z,101515.19
2023-04-03T05:16:29.339Z,101521.63
2023-04-03T05:21:33.336Z,101524.47
2023-04-03T05:26:34.968Z,101542.81
2023-04-03T05:31:36.477Z,101549.47
2023-04-03T05:36:37.877Z,101542.75
2023-04-03T05:41:39.405Z,101556.09
2023-04-03T05:46:40.758Z,101548.63
2023-04-03T05:51:42.507Z,101552.78
2023-04-03T05:56:43.922Z,101553.53
2023-04-03T06:01:45.469Z,101559.53
2023-04-03T06:06:52.951Z,101562.50
2023-04-03T06:11:54.401Z,101568.78
2023-04-03T06:16:56.080Z,101573.81
2023-04-03T06:21:57.758Z,101585.09
2023-04-03T06:26:59.550Z,101585.72
2023-04-03T06:32:00.889Z,101585.28
2023-04-03T06:37:02.352Z,101593.59
2023-04-03T06:42:03.744Z,101600.16
2023-04-03T06:47:05.506Z,101601.63
2023-04-03T06:52:06.928Z,101603.13
2023-04-03T06:57:08.737Z,101612.84
2023-04-03T07:02:12.515Z,101615.41
2023-04-03T07:07:14.094Z,101622.72
2023-04-03T07:12:15.994Z,101634.88
2023-04-03T07:17:17.395Z,101637.41
2023-04-03T07:22:18.857Z,101645.50
2023-04-03T07:27:20.526Z,101639.88
2023-04-03T07:32:21.860Z,101637.50
2023-04-03T07:37:23.388Z,101641.78
2023-04-03T07:42:24.747Z,101652.47
2023-04-03T07:47:26.146Z,101657.84
2023-04-03T07:52:27.501Z,101654.84
2023-04-03T07:57:28.927Z,101658.13
2023-04-03T08:02:30.337Z,101654.53
2023-04-03T08:07:31.753Z,101662.22
2023-04-03T08:12:33.274Z,101651.56
2023-04-03T08:17:35.633Z,101653.75
2023-04-03T08:22:37.040Z,101666.88
2023-04-03T08:27:38.873Z,101647.09
2023-04-03T08:32:42.797Z,101649.50
2023-04-03T08:37:44.206Z,101645.59
2023-04-03T08:42:57.814Z,101651.22
2023-04-03T08:48:13.040Z,101652.53
2023-04-03T08:53:22.407Z,101653.97
2023-04-03T08:58:30.290Z,101653.00
2023-04-03T09:03:34.179Z,101646.53
2023-04-03T09:08:46.734Z,101656.97
2023-04-03T09:14:33.087Z,101663.03
2023-04-03T09:19:45.571Z,101661.34
2023-04-03T09:24:53.274Z,101666.69
2023-04-03T09:29:57.279Z,101653.53
2023-04-03T09:35:19.085Z,101650.03
2023-04-03T09:40:25.815Z,101650.25
2023-04-03T09:45:29.336Z,101650.94
2023-04-03T09:50:31.356Z,101658.03
2023-04-03T09:55:32.708Z,101649.28
2023-04-03T10:00:37.096Z,101643.22
2023-04-03T10:05:42.017Z,101644.28
2023-04-03T10:10:46.482Z,101652.13
2023-04-03T10:16:04.162Z,101642.94
2023-04-03T10:21:26.684Z,101639.06
2023-04-03T10:26:46.427Z,101628.84
2023-04-03T10:32:26.836Z,101633.59
2023-04-03T10:37:37.680Z,101638.88
2023-04-03T10:43:00.904Z,101632.53
2023-04-03T10:48:18.215Z,101623.91
2023-04-03T10:53:38.738Z,101618.09
2023-04-03T10:58:44.746Z,101612.34
2023-04-03T11:03:56.615Z,101596.06
2023-04-03T11:09:07.694Z,101611.59
2023-04-03T11:14:17.155Z,101592.47
2023-04-03T11:19:24.942Z,101592.59
2023-04-03T11:24:30.681Z,101581.59
2023-04-03T11:29:39.155Z,101579.69
2023-04-03T11:34:44.245Z,101582.28
2023-04-03T11:39:57.782Z,101581.97
2023-04-03T11:45:30.814Z,101577.59
2023-04-03T11:50:42.138Z,101571.84
2023-04-03T11:55:49.639Z,101569.84
2023-04-03T12:00:58.907Z,101560.31
2023-04-03T12:06:12.445Z,101559.94
2023-04-03T12:11:13.971Z,101562.16
2023-04-03T12:16:30.074Z,101547.03
2023-04-03T12:21:37.378Z,101547.59
2023-04-03T12:27:00.154Z,101537.00
2023-04-03T12:32:08.412Z,101546.81
2023-04-03T12:37:22.738Z,101537.47
2023-04-03T12:42:26.836Z,101542.59
2023-04-03T12:47:38.853Z,101528.25
2023-04-03T12:52:48.532Z,101518.44
2023-04-03T12:57:50.042Z,101514.22
2023-04-03T13:02:51.553Z,101505.41
2023-04-03T13:08:00.992Z,101506.97
2023-04-03T13:13:10.198Z,101502.00
2023-04-03T13:18:29.925Z,101500.59
2023-04-03T13:23:32.537Z,101499.25
2023-04-03T13:28:35.207Z,101495.84
2023-04-03T13:33:40.832Z,101491.13
2023-04-03T13:38:42.315Z,101501.75
2023-04-03T13:43:43.744Z,101487.72
2023-04-03T13:48:48.165Z,101484.84
2023-04-03T13:53:57.787Z,101479.59
2023-04-03T13:59:22.040Z,101465.97
2023-04-03T14:04:28.487Z,101463.03
2023-04-03T14:09:30.689Z,101465.88
2023-04-03T14:14:34.700Z,101455.88
2023-04-03T14:19:36.666Z,101451.72
2023-04-03T14:24:39.442Z,101460.50
2023-04-03T14:29:40.798Z,101453.56
2023-04-03T14:34:43.773Z,101452.28
2023-04-03T14:39:46.200Z,101443.97
2023-04-03T14:44:47.889Z,101439.16
2023-04-03T14:49:49.306Z,101429.94
2023-04-03T14:54:51.988Z,101419.53
2023-04-03T14:59:53.515Z,101425.41
2023-04-03T15:04:56.419Z,101427.72
2023-04-03T15:09:58.130Z,101425.97
2023-04-03T15:15:02.048Z,101431.50
2023-04-03T15:20:14.048Z,101441.88
2023-04-03T15:25:16.303Z,101439.72
2023-04-03T15:30:19.767Z,101434.19
2023-04-03T15:35:21.266Z,101431.00
2023-04-03T15:40:22.680Z,101433.81
2023-04-03T15:45:24.280Z,101439.81
2023-04-03T15:50:25.921Z,101421.91
2023-04-03T15:55:29.617Z,101428.41
2023-04-03T16:00:33.088Z,101433.00
2023-04-03T16:05:36.561Z,101431.19
2023-04-03T16:10:39.244Z,101434.25
2023-04-03T16:15:41.372Z,101442.81
2023-04-03T16:20:44.596Z,101438.47
2023-04-03T16:25:47.183Z,101441.31
2023-04-03T16:30:50.083Z,101437.81
2023-04-03T16:35:52.860Z,101436.81
2023-04-03T16:40:57.450Z,101443.59
2023-04-03T16:45:58.991Z,101434.16
2023-04-03T16:51:00.749Z,101438.06
2023-04-03T16:56:02.159Z,101439.72
2023-04-03T17:01:13.837Z,101446.09
2023-04-03T17:06:20.937Z,101451.13
2023-04-03T17:11:22.564Z,101466.34
2023-04-03T17:16:25.197Z,101468.72
2023-04-03T17:21:27.337Z,101468.66
2023-04-03T17:26:29.466Z,101468.91
2023-04-03T17:31:31.030Z,101477.69
2023-04-03T17:36:33.871Z,101484.22
2023-04-03T17:41:35.529Z,101482.97
2023-04-03T17:46:36.932Z,101491.84
2023-04-03T17:51:38.331Z,101494.00
2023-04-03T17:56:39.887Z,101504.03
2023-04-03T18:01:44.186Z,101506.72
2023-04-03T18:06:48.831Z,101505.97
2023-04-03T18:11:51.877Z,101509.72
2023-04-03T18:16:53.496Z,101524.91
2023-04-03T18:22:01.974Z,101520.72
2023-04-03T18:27:09.962Z,101527.06
2023-04-03T18:32:14.374Z,101522.47
2023-04-03T18:37:16.364Z,101523.66
2023-04-03T18:42:21.394Z,101522.84
2023-04-03T18:47:23.116Z,101522.81
2023-04-03T18:52:25.493Z,101527.25
2023-04-03T18:57:26.903Z,101527.16
2023-04-03T19:02:28.645Z,101535.69
2023-04-03T19:07:30.147Z,101547.84
2023-04-03T19:12:31.691Z,101549.59
2023-04-03T19:17:33.061Z,101561.28
2023-04-03T19:22:34.800Z,101564.44
2023-04-03T19:27:37.236Z,101568.94
2023-04-03T19:32:38.744Z,101575.13
2023-04-03T19:37:40.463Z,101577.56
2023-04-03T19:42:42.951Z,101579.38
2023-04-03T19:47:45.025Z,101582.03
2023-04-03T19:52:46.570Z,101578.28
2023-04-03T19:57:49.914Z,101583.22
2023-04-03T20:02:51.496Z,101580.41
2023-04-03T20:07:53.110Z,101582.94
2023-04-03T20:12:54.672Z,101585.00
2023-04-03T20:17:57.390Z,101590.19
2023-04-03T20:22:59.262Z,101587.97
2023-04-03T20:28:00.758Z,101585.75
2023-04-03T20:33:03.857Z,101589.81
2023-04-03T20:38:07.162Z,101586.97
2023-04-03T20:43:09.109Z,101588.63
2023-04-03T20:48:13.112Z,101587.47
2023-04-03T20:53:17.855Z,101587.84
2023-04-03T20:58:19.819Z,101598.31
2023-04-03T21:03:23.287Z,101593.31
2023-04-03T21:09:02.276Z,101586.97
2023-04-03T21:14:42.335Z,101587.63
2023-04-03T21:19:46.399Z,101584.22
2023-04-03T21:24:48.380Z,101588.16
2023-04-03T21:29:50.342Z,101587.97
2023-04-03T21:34:51.690Z,101577.50
2023-04-03T21:39:53.186Z,101585.94
2023-04-03T21:44:54.657Z,101578.94
2023-04-03T21:49:56.485Z,101580.13
2023-04-03T21:54:57.864Z,101570.75
2023-04-03T21:59:59.447Z,101575.84
2023-04-03T22:05:01.551Z,101567.22
2023-04-03T22:10:03.229Z,101570.41
2023-04-03T22:15:05.736Z,101570.00
2023-04-03T22:20:08.057Z,101559.16
2023-04-03T22:25:10.217Z,101564.16
2023-04-03T22:30:12.045Z,101563.59
2023-04-03T22:35:13.468Z,101568.59
2023-04-03T22:40:14.954Z,101567.94
2023-04-03T22:45:16.459Z,101562.94
2023-04-03T22:50:17.793Z,101560.38
2023-04-03T22:55:19.902Z,101558.56
2023-04-03T23:00:21.482Z,101559.84
2023-04-03T23:05:22.908Z,101557.31
2023-04-03T23:10:24.286Z,101564.41
2023-04-03T23:15:25.783Z,101567.47
2023-04-03T23:20:27.121Z,101564.91
2023-04-03T23:25:28.447Z,101566.06
2023-04-03T23:30:29.837Z,101562.84
2023-04-03T23:35:31.985Z,101570.06
2023-04-03T23:40:33.351Z,101570.56
2023-04-03T23:45:34.804Z,101578.47
2023-04-03T23:50:37.193Z,101573.06
2023-04-03T23:55:38.864Z,101565.47
